createdAt,value
2023-02-19T00:01:10.938Z,2.16
2023-02-19T00:03:12.577Z,2.13
2023-02-19T00:05:14.373Z,1.95
2023-02-19T00:07:15.799Z,1.96
2023-02-19T00:09:18.980Z,2.05
2023-02-19T00:11:22.735Z,1.79
2023-02-19T00:13:24.151Z,2.00
2023-02-19T00:15:25.642Z,1.97
2023-02-19T00:17:27.155Z,1.95
2023-02-19T00:19:28.823Z,1.97
2023-02-19T00:21:30.554Z,1.97
2023-02-19T00:23:32.458Z,1.82
2023-02-19T00:25:36.859Z,1.94
2023-02-19T00:27:38.263Z,1.82
2023-02-19T00:29:39.912Z,1.96
2023-02-19T00:31:41.407Z,1.98
2023-02-19T00:33:42.893Z,1.89
2023-02-19T00:35:44.550Z,1.88
2023-02-19T00:37:45.981Z,1.87
2023-02-19T00:39:48.174Z,1.86
2023-02-19T00:41:49.932Z,1.81
2023-02-19T00:43:52.564Z,1.80
2023-02-19T00:45:54.024Z,1.80
2023-02-19T00:47:55.614Z,1.75
2023-02-19T00:49:57.014Z,1.74
2023-02-19T00:51:58.413Z,1.82
2023-02-19T00:54:00.203Z,1.77
2023-02-19T00:56:01.687Z,1.64
2023-02-19T00:58:03.217Z,1.73
2023-02-19T01:00:05.318Z,1.55
2023-02-19T01:02:06.688Z,1.46
2023-02-19T01:04:08.262Z,1.55
2023-02-19T01:06:11.246Z,1.61
2023-02-19T01:08:12.640Z,1.67
2023-02-19T01:10:14.079Z,1.51
2023-02-19T01:12:15.663Z,1.68
2023-02-19T01:14:17.063Z,1.58
2023-02-19T01:16:21.108Z,1.71
2023-02-19T01:18:22.978Z,1.58
2023-02-19T01:20:24.372Z,1.66
2023-02-19T01:22:25.831Z,1.49
2023-02-19T01:24:27.424Z,1.66
2023-02-19T01:26:30.923Z,1.67
2023-02-19T01:28:32.370Z,1.71
2023-02-19T01:30:35.553Z,1.62
2023-02-19T01:32:37.091Z,1.49
2023-02-19T01:34:38.622Z,1.50
2023-02-19T01:36:40.504Z,1.50
2023-02-19T01:38:42.350Z,1.63
2023-02-19T01:40:43.810Z,1.58
2023-02-19T01:42:45.389Z,1.50
2023-02-19T01:44:46.736Z,1.68
2023-02-19T01:46:48.174Z,1.60
2023-02-19T01:48:49.880Z,1.74
2023-02-19T01:50:56.923Z,1.78
2023-02-19T01:53:01.244Z,1.67
2023-02-19T01:55:07.352Z,1.29
2023-02-19T01:57:15.958Z,1.57
2023-02-19T01:59:18.498Z,1.63
2023-02-19T02:01:20.252Z,1.63
2023-02-19T02:03:22.037Z,1.55
2023-02-19T02:05:50.365Z,1.65
2023-02-19T02:07:52.176Z,1.49
2023-02-19T02:09:54.154Z,1.41
2023-02-19T02:11:55.540Z,1.62
2023-02-19T02:13:58.474Z,1.39
2023-02-19T02:16:30.189Z,1.52
2023-02-19T02:18:44.079Z,1.50
2023-02-19T02:21:24.609Z,1.48
2023-02-19T02:23:40.429Z,1.52
2023-02-19T02:25:47.853Z,1.51
2023-02-19T02:27:57.236Z,1.38
2023-02-19T02:30:25.767Z,1.43
2023-02-19T02:32:33.659Z,1.30
2023-02-19T02:34:49.361Z,1.57
2023-02-19T02:36:55.432Z,1.57
2023-02-19T02:38:57.857Z,1.47
2023-02-19T02:40:59.929Z,1.18
2023-02-19T02:43:01.383Z,1.32
2023-02-19T02:45:18.085Z,1.40
2023-02-19T02:47:19.720Z,1.35
2023-02-19T02:49:23.969Z,1.35
2023-02-19T02:51:44.062Z,1.57
2023-02-19T02:54:11.463Z,1.52
2023-02-19T02:56:15.443Z,1.58
2023-02-19T02:58:17.686Z,1.53
2023-02-19T03:00:19.547Z,1.49
2023-02-19T03:02:26.088Z,1.44
2023-02-19T03:05:08.131Z,1.49
2023-02-19T03:07:11.261Z,1.40
2023-02-19T03:09:23.391Z,1.46
2023-02-19T03:11:25.038Z,1.35
2023-02-19T03:13:35.298Z,1.42
2023-02-19T03:15:43.367Z,1.35
2023-02-19T03:17:51.157Z,1.29
2023-02-19T03:19:56.116Z,1.35
2023-02-19T03:22:05.782Z,1.30
2023-02-19T03:24:10.314Z,1.17
2023-02-19T03:26:12.740Z,1.16
2023-02-19T03:28:16.883Z,1.16
2023-02-19T03:30:26.207Z,1.25
2023-02-19T03:32:39.797Z,1.02
2023-02-19T03:34:48.703Z,1.23
2023-02-19T03:37:00.610Z,1.05
2023-02-19T03:39:05.608Z,0.94
2023-02-19T03:41:21.755Z,0.96
2023-02-19T03:43:55.880Z,1.26
2023-02-19T03:46:06.859Z,1.24
2023-02-19T03:48:30.914Z,1.19
2023-02-19T03:50:32.264Z,1.22
2023-02-19T03:52:44.695Z,1.17
2023-02-19T03:55:05.097Z,1.21
2023-02-19T03:57:39.036Z,1.17
2023-02-19T03:59:54.262Z,1.18
2023-02-19T04:02:01.961Z,1.15
2023-02-19T04:04:14.858Z,1.17
2023-02-19T04:06:22.679Z,1.13
2023-02-19T04:08:26.164Z,1.23
2023-02-19T04:10:29.486Z,1.20
2023-02-19T04:12:31.020Z,1.21
2023-02-19T04:14:50.341Z,1.28
2023-02-19T04:16:58.723Z,1.29
2023-02-19T04:19:07.624Z,1.40
2023-02-19T04:21:10.603Z,1.38
2023-02-19T04:23:14.599Z,1.26
2023-02-19T04:25:16.176Z,1.32
2023-02-19T04:27:18.280Z,1.42
2023-02-19T04:29:19.712Z,1.20
2023-02-19T04:31:21.904Z,1.37
2023-02-19T04:33:23.522Z,1.38
2023-02-19T04:35:24.920Z,1.36
2023-02-19T04:37:26.542Z,1.38
2023-02-19T04:39:28.047Z,1.43
2023-02-19T04:41:29.564Z,1.39
2023-02-19T04:43:31.081Z,1.39
2023-02-19T04:45:32.561Z,1.22
2023-02-19T04:47:34.044Z,1.37
2023-02-19T04:49:35.589Z,1.41
2023-02-19T04:51:37.235Z,1.48
2023-02-19T04:53:38.715Z,1.43
2023-02-19T04:55:40.276Z,1.36
2023-02-19T04:57:41.792Z,1.46
2023-02-19T04:59:43.272Z,1.36
2023-02-19T05:01:44.837Z,1.46
2023-02-19T05:03:46.465Z,1.49
2023-02-19T05:05:47.859Z,1.48
2023-02-19T05:07:49.403Z,1.44
2023-02-19T05:09:50.935Z,1.34
2023-02-19T05:11:52.357Z,1.40
2023-02-19T05:13:55.722Z,1.32
2023-02-19T05:15:59.493Z,1.48
2023-02-19T05:18:00.911Z,1.34
2023-02-19T05:20:02.477Z,1.37
2023-02-19T05:22:03.986Z,1.48
2023-02-19T05:24:05.605Z,1.60
2023-02-19T05:26:13.843Z,1.45
2023-02-19T05:28:15.435Z,1.59
2023-02-19T05:30:16.868Z,1.53
2023-02-19T05:32:18.828Z,1.37
2023-02-19T05:34:20.449Z,1.28
2023-02-19T05:36:22.718Z,1.37
2023-02-19T05:38:24.866Z,1.37
2023-02-19T05:40:26.408Z,1.44
2023-02-19T05:42:27.811Z,1.51
2023-02-19T05:44:29.331Z,1.47
2023-02-19T05:46:31.232Z,1.49
2023-02-19T05:48:33.366Z,1.52
2023-02-19T05:50:38.261Z,1.55
2023-02-19T05:52:41.416Z,1.53
2023-02-19T05:54:42.820Z,1.46
2023-02-19T05:56:44.495Z,1.47
2023-02-19T05:58:45.882Z,1.36
2023-02-19T06:00:47.299Z,1.36
2023-02-19T06:02:49.018Z,1.55
2023-02-19T06:04:50.477Z,1.53
2023-02-19T06:06:51.881Z,1.54
2023-02-19T06:08:54.015Z,1.63
2023-02-19T06:10:55.408Z,1.66
2023-02-19T06:12:56.878Z,1.55
2023-02-19T06:14:58.581Z,1.50
2023-02-19T06:16:59.976Z,1.59
2023-02-19T06:19:04.731Z,1.61
2023-02-19T06:21:09.446Z,1.76
2023-02-19T06:23:11.070Z,1.76
2023-02-19T06:25:12.459Z,1.78
2023-02-19T06:27:14.181Z,1.81
2023-02-19T06:29:17.022Z,1.89
2023-02-19T06:31:20.232Z,1.79
2023-02-19T06:33:22.032Z,1.72
2023-02-19T06:35:23.483Z,1.79
2023-02-19T06:37:24.950Z,1.81
2023-02-19T06:39:27.110Z,1.80
2023-02-19T06:41:28.547Z,1.88
2023-02-19T06:43:31.502Z,1.92
2023-02-19T06:45:33.431Z,1.95
2023-02-19T06:47:34.825Z,1.95
2023-02-19T06:49:36.210Z,1.89
2023-02-19T06:51:37.882Z,1.88
2023-02-19T06:53:39.353Z,1.95
2023-02-19T06:55:40.818Z,2.01
2023-02-19T06:57:42.490Z,2.20
2023-02-19T06:59:43.957Z,2.09
2023-02-19T07:01:46.216Z,2.16
2023-02-19T07:03:47.985Z,2.25
2023-02-19T07:05:49.873Z,2.17
2023-02-19T07:07:51.357Z,2.22
2023-02-19T07:09:52.978Z,2.27
2023-02-19T07:11:54.699Z,2.11
2023-02-19T07:13:58.708Z,2.22
2023-02-19T07:16:03.436Z,2.25
2023-02-19T07:18:04.961Z,2.22
2023-02-19T07:20:06.538Z,2.25
2023-02-19T07:22:08.178Z,2.27
2023-02-19T07:24:10.226Z,2.39
2023-02-19T07:26:13.279Z,2.36
2023-02-19T07:28:14.880Z,2.20
2023-02-19T07:30:16.363Z,2.46
2023-02-19T07:32:17.782Z,2.57
2023-02-19T07:34:19.396Z,2.58
2023-02-19T07:36:23.067Z,2.72
2023-02-19T07:38:25.264Z,2.65
2023-02-19T07:40:26.872Z,2.84
2023-02-19T07:42:28.312Z,2.55
2023-02-19T07:44:29.692Z,2.68
2023-02-19T07:46:31.432Z,2.84
2023-02-19T07:48:34.499Z,2.82
2023-02-19T07:50:35.967Z,2.97
2023-02-19T07:52:37.772Z,3.03
2023-02-19T07:54:39.159Z,2.90
2023-02-19T07:56:40.560Z,2.87
2023-02-19T07:58:42.549Z,2.95
2023-02-19T08:00:43.952Z,3.03
2023-02-19T08:02:46.054Z,3.05
2023-02-19T08:04:48.041Z,2.95
2023-02-19T08:06:49.419Z,3.10
2023-02-19T08:08:50.807Z,3.05
2023-02-19T08:10:52.566Z,3.05
2023-02-19T08:13:01.238Z,3.13
2023-02-19T08:15:02.704Z,2.89
2023-02-19T08:17:04.339Z,2.91
2023-02-19T08:19:05.791Z,3.08
2023-02-19T08:21:07.299Z,2.96
2023-02-19T08:23:09.746Z,3.08
2023-02-19T08:25:11.208Z,3.04
2023-02-19T08:27:12.611Z,3.48
2023-02-19T08:29:14.067Z,3.07
2023-02-19T08:31:16.078Z,3.35
2023-02-19T08:33:20.690Z,3.53
2023-02-19T08:35:22.790Z,3.72
2023-02-19T08:37:24.181Z,3.83
2023-02-19T08:39:25.621Z,3.90
2023-02-19T08:41:27.245Z,3.87
2023-02-19T08:43:28.674Z,3.77
2023-02-19T08:45:30.512Z,3.74
2023-02-19T08:47:34.400Z,3.77
2023-02-19T08:49:35.822Z,4.14
2023-02-19T08:51:37.268Z,4.38
2023-02-19T08:53:40.751Z,4.17
2023-02-19T08:55:42.171Z,4.01
2023-02-19T08:57:44.009Z,4.06
2023-02-19T08:59:45.679Z,3.85
2023-02-19T09:01:47.300Z,3.76
2023-02-19T09:03:48.790Z,3.70
2023-02-19T09:05:50.638Z,3.63
2023-02-19T09:07:52.030Z,3.94
2023-02-19T09:09:53.983Z,3.97
2023-02-19T09:11:55.556Z,3.87
2023-02-19T09:13:57.269Z,3.38
2023-02-19T09:15:58.746Z,3.91
2023-02-19T09:18:00.392Z,3.87
2023-02-19T09:20:01.828Z,3.79
2023-02-19T09:22:04.838Z,3.85
2023-02-19T09:24:08.839Z,3.91
2023-02-19T09:26:10.351Z,4.25
2023-02-19T09:28:11.755Z,4.53
2023-02-19T09:30:13.600Z,4.29
2023-02-19T09:32:15.952Z,4.18
2023-02-19T09:34:18.067Z,4.07
2023-02-19T09:36:19.744Z,4.17
2023-02-19T09:38:21.180Z,4.11
2023-02-19T09:40:22.584Z,4.31
2023-02-19T09:42:28.377Z,4.30
2023-02-19T09:44:45.420Z,4.31
2023-02-19T09:46:52.698Z,4.30
2023-02-19T09:48:59.168Z,4.64
2023-02-19T09:51:01.871Z,4.51
2023-02-19T09:53:11.283Z,4.48
2023-02-19T09:55:33.462Z,4.71
2023-02-19T09:57:36.402Z,4.93
2023-02-19T09:59:44.673Z,4.78
2023-02-19T10:01:49.505Z,4.72
2023-02-19T10:03:50.979Z,4.49
2023-02-19T10:05:53.953Z,4.31
2023-02-19T10:07:56.674Z,4.62
2023-02-19T10:10:18.286Z,4.79
2023-02-19T10:12:28.580Z,4.97
2023-02-19T10:14:44.898Z,4.73
2023-02-19T10:16:49.079Z,4.84
2023-02-19T10:18:50.961Z,4.81
2023-02-19T10:20:53.273Z,4.83
2023-02-19T10:23:02.700Z,4.93
2023-02-19T10:25:04.459Z,4.86
2023-02-19T10:27:12.043Z,4.74
2023-02-19T10:29:13.436Z,5.26
2023-02-19T10:31:23.339Z,5.25
2023-02-19T10:33:25.620Z,5.31
2023-02-19T10:35:27.472Z,4.98
2023-02-19T10:37:29.603Z,5.21
2023-02-19T10:39:41.876Z,5.26
2023-02-19T10:41:44.407Z,5.23
2023-02-19T10:43:53.125Z,5.31
2023-02-19T10:45:55.049Z,5.36
2023-02-19T10:47:57.271Z,5.06
2023-02-19T10:50:02.114Z,5.35
2023-02-19T10:52:35.537Z,5.19
2023-02-19T10:54:37.002Z,5.59
2023-02-19T10:56:38.567Z,5.38
2023-02-19T10:58:40.546Z,5.17
2023-02-19T11:00:41.970Z,5.55
2023-02-19T11:02:44.632Z,5.46
2023-02-19T11:05:10.792Z,5.38
2023-02-19T11:07:17.043Z,5.43
2023-02-19T11:09:39.198Z,5.47
2023-02-19T11:11:41.133Z,5.69
2023-02-19T11:13:42.788Z,5.58
2023-02-19T11:15:52.909Z,5.72
2023-02-19T11:18:13.819Z,5.78
2023-02-19T11:20:17.409Z,5.40
2023-02-19T11:22:38.722Z,5.36
2023-02-19T11:24:40.297Z,5.31
2023-02-19T11:26:44.711Z,5.65
2023-02-19T11:28:54.944Z,5.58
2023-02-19T11:31:14.705Z,5.42
2023-02-19T11:33:16.309Z,5.73
2023-02-19T11:35:22.093Z,5.77
2023-02-19T11:37:23.718Z,5.70
2023-02-19T11:39:30.633Z,5.83
2023-02-19T11:41:56.105Z,6.03
2023-02-19T11:44:04.414Z,6.05
2023-02-19T11:46:25.886Z,6.40
2023-02-19T11:48:38.300Z,6.71
2023-02-19T11:50:45.676Z,6.58
2023-02-19T11:52:50.032Z,6.23
2023-02-19T11:54:59.436Z,6.09
2023-02-19T11:57:36.303Z,5.67
2023-02-19T11:59:45.706Z,5.27
2023-02-19T12:02:06.018Z,4.93
2023-02-19T12:04:19.334Z,4.88
2023-02-19T12:06:38.107Z,4.64
2023-02-19T12:08:58.239Z,4.75
2023-02-19T12:11:27.163Z,4.57
2023-02-19T12:13:54.336Z,4.52
2023-02-19T12:16:08.945Z,4.42
2023-02-19T12:18:36.766Z,4.39
2023-02-19T12:21:01.326Z,4.46
2023-02-19T12:23:40.336Z,4.40
2023-02-19T12:26:01.671Z,4.34
2023-02-19T12:28:26.296Z,4.21
2023-02-19T12:30:45.635Z,4.36
2023-02-19T12:32:55.180Z,4.64
2023-02-19T12:35:14.528Z,4.77
2023-02-19T12:37:15.967Z,4.78
2023-02-19T12:39:17.322Z,4.69
2023-02-19T12:41:30.780Z,4.63
2023-02-19T12:43:34.771Z,4.70
2023-02-19T12:45:46.833Z,4.64
2023-02-19T12:48:03.850Z,4.52
2023-02-19T12:50:20.120Z,4.58
2023-02-19T12:52:26.383Z,4.71
2023-02-19T12:54:34.576Z,4.72
2023-02-19T12:57:03.358Z,4.79
2023-02-19T12:59:22.863Z,4.88
2023-02-19T13:01:30.472Z,4.97
2023-02-19T13:03:39.473Z,5.09
2023-02-19T13:05:40.828Z,5.10
2023-02-19T13:08:03.320Z,5.29
2023-02-19T13:10:10.878Z,5.25
2023-02-19T13:12:23.375Z,5.06
2023-02-19T13:14:33.846Z,5.42
2023-02-19T13:16:40.150Z,5.36
2023-02-19T13:18:50.907Z,5.08
2023-02-19T13:20:53.179Z,5.02
2023-02-19T13:23:04.155Z,5.31
2023-02-19T13:25:07.662Z,5.24
2023-02-19T13:27:31.438Z,5.21
2023-02-19T13:29:54.767Z,4.98
2023-02-19T13:32:27.088Z,5.09
2023-02-19T13:34:53.304Z,4.97
2023-02-19T13:36:56.113Z,4.99
2023-02-19T13:38:59.619Z,5.02
2023-02-19T13:41:01.413Z,4.88
2023-02-19T13:43:06.044Z,5.01
2023-02-19T13:45:07.767Z,5.07
2023-02-19T13:47:49.013Z,5.11
2023-02-19T13:49:50.571Z,5.12
2023-02-19T13:51:54.202Z,5.18
2023-02-19T13:53:55.582Z,5.18
2023-02-19T13:55:57.101Z,5.16
2023-02-19T13:58:32.842Z,5.19
2023-02-19T14:00:49.862Z,5.13
2023-02-19T14:03:29.893Z,5.30
2023-02-19T14:06:08.465Z,5.38
2023-02-19T14:08:09.913Z,5.32
2023-02-19T14:10:33.251Z,5.30
2023-02-19T14:12:37.175Z,5.10
2023-02-19T14:14:42.226Z,4.95
2023-02-19T14:16:55.564Z,5.00
2023-02-19T14:18:57.151Z,5.02
2023-02-19T14:21:14.158Z,5.04
2023-02-19T14:23:22.596Z,4.91
2023-02-19T14:25:28.913Z,5.04
2023-02-19T14:27:30.417Z,5.17
2023-02-19T14:29:32.173Z,4.95
2023-02-19T14:31:38.277Z,4.89
2023-02-19T14:33:44.963Z,4.77
2023-02-19T14:35:49.757Z,5.12
2023-02-19T14:37:55.099Z,5.07
2023-02-19T14:39:57.729Z,5.01
2023-02-19T14:42:02.806Z,4.93
2023-02-19T14:44:08.231Z,5.05
2023-02-19T14:46:24.341Z,5.02
2023-02-19T14:48:33.329Z,4.87
2023-02-19T14:50:35.104Z,4.95
2023-02-19T14:52:43.307Z,4.65
2023-02-19T14:54:51.874Z,4.73
2023-02-19T14:56:54.611Z,4.67
2023-02-19T14:59:21.187Z,4.71
2023-02-19T15:01:29.598Z,4.69
2023-02-19T15:03:36.552Z,4.67
2023-02-19T15:05:38.398Z,4.56
2023-02-19T15:07:41.965Z,4.24
2023-02-19T15:09:52.571Z,4.47
2023-02-19T15:11:54.849Z,4.25
2023-02-19T15:14:00.788Z,4.54
2023-02-19T15:16:02.464Z,4.43
2023-02-19T15:18:05.147Z,4.47
2023-02-19T15:20:11.560Z,4.55
2023-02-19T15:22:20.974Z,4.38
2023-02-19T15:24:22.677Z,4.38
2023-02-19T15:26:32.113Z,4.32
2023-02-19T15:28:34.228Z,4.22
2023-02-19T15:30:35.719Z,4.36
2023-02-19T15:32:37.330Z,4.33
2023-02-19T15:34:38.723Z,4.22
2023-02-19T15:36:40.310Z,4.13
2023-02-19T15:38:42.106Z,4.04
2023-02-19T15:40:45.352Z,4.06
2023-02-19T15:42:47.592Z,4.01
2023-02-19T15:44:59.027Z,4.04
2023-02-19T15:47:06.631Z,3.86
2023-02-19T15:49:17.668Z,3.90
2023-02-19T15:51:26.430Z,3.92
2023-02-19T15:53:30.853Z,3.88
2023-02-19T15:55:32.264Z,3.79
2023-02-19T15:57:40.778Z,3.59
2023-02-19T15:59:50.149Z,3.83
2023-02-19T16:01:51.857Z,3.45
2023-02-19T16:03:54.617Z,3.66
2023-02-19T16:05:58.924Z,3.66
2023-02-19T16:08:08.202Z,3.54
2023-02-19T16:10:24.412Z,3.55
2023-02-19T16:12:26.590Z,3.47
2023-02-19T16:14:33.632Z,3.39
2023-02-19T16:16:38.727Z,3.38
2023-02-19T16:18:47.688Z,3.38
2023-02-19T16:20:49.172Z,3.36
2023-02-19T16:22:52.327Z,3.18
2023-02-19T16:24:57.461Z,3.26
2023-02-19T16:26:59.322Z,3.16
2023-02-19T16:29:01.390Z,3.30
2023-02-19T16:31:05.744Z,3.20
2023-02-19T16:33:41.515Z,3.32
2023-02-19T16:35:43.021Z,3.29
2023-02-19T16:37:58.236Z,3.23
2023-02-19T16:40:08.507Z,3.24
2023-02-19T16:42:14.458Z,3.17
2023-02-19T16:44:24.880Z,3.20
2023-02-19T16:46:26.328Z,3.02
2023-02-19T16:48:28.305Z,3.17
2023-02-19T16:50:29.795Z,2.97
2023-02-19T16:52:31.270Z,2.87
2023-02-19T16:54:32.838Z,3.00
2023-02-19T16:56:34.293Z,2.93
2023-02-19T16:58:36.437Z,3.00
2023-02-19T17:00:38.705Z,2.87
2023-02-19T17:02:40.327Z,2.77
2023-02-19T17:04:41.927Z,2.80
2023-02-19T17:06:43.688Z,2.51
2023-02-19T17:08:45.272Z,2.58
2023-02-19T17:10:46.852Z,2.66
2023-02-19T17:12:48.985Z,2.60
2023-02-19T17:14:50.462Z,2.54
2023-02-19T17:16:51.872Z,2.55
2023-02-19T17:18:54.467Z,2.43
2023-02-19T17:21:05.152Z,2.38
2023-02-19T17:23:06.535Z,2.38
2023-02-19T17:25:08.135Z,2.32
2023-02-19T17:27:13.010Z,2.12
2023-02-19T17:29:16.017Z,2.19
2023-02-19T17:31:18.258Z,2.18
2023-02-19T17:33:19.899Z,2.12
2023-02-19T17:35:21.382Z,2.17
2023-02-19T17:37:22.985Z,2.12
2023-02-19T17:39:24.485Z,1.98
2023-02-19T17:41:26.129Z,2.11
2023-02-19T17:43:27.652Z,2.08
2023-02-19T17:45:29.165Z,2.02
2023-02-19T17:47:30.575Z,1.96
2023-02-19T17:49:32.027Z,1.91
2023-02-19T17:51:34.951Z,1.96
2023-02-19T17:53:36.372Z,1.77
2023-02-19T17:55:37.885Z,1.96
2023-02-19T17:57:39.377Z,1.85
2023-02-19T17:59:40.827Z,1.95
2023-02-19T18:01:42.308Z,1.90
2023-02-19T18:03:44.032Z,1.73
2023-02-19T18:05:45.739Z,1.81
2023-02-19T18:07:48.299Z,1.83
2023-02-19T18:09:49.881Z,1.98
2023-02-19T18:11:51.323Z,1.77
2023-02-19T18:13:52.834Z,1.95
2023-02-19T18:15:54.324Z,1.82
2023-02-19T18:17:56.867Z,2.01
2023-02-19T18:19:58.340Z,1.91
2023-02-19T18:21:59.819Z,1.89
2023-02-19T18:24:01.219Z,1.88
2023-02-19T18:26:02.828Z,1.80
2023-02-19T18:28:04.568Z,1.81
2023-02-19T18:30:09.784Z,1.87
2023-02-19T18:32:11.907Z,1.79
2023-02-19T18:34:18.771Z,1.86
2023-02-19T18:36:20.184Z,1.87
2023-02-19T18:38:21.819Z,1.74
2023-02-19T18:40:24.036Z,1.73
2023-02-19T18:42:25.799Z,1.85
2023-02-19T18:44:27.405Z,1.70
2023-02-19T18:46:30.467Z,1.79
2023-02-19T18:48:32.326Z,1.70
2023-02-19T18:50:33.799Z,1.42
2023-02-19T18:52:35.386Z,1.79
2023-02-19T18:54:36.801Z,1.72
2023-02-19T18:56:45.780Z,1.74
2023-02-19T18:58:49.448Z,1.72
2023-02-19T19:00:52.401Z,1.71
2023-02-19T19:03:00.106Z,1.63
2023-02-19T19:05:01.876Z,1.53
2023-02-19T19:07:06.940Z,1.68
2023-02-19T19:09:09.011Z,1.66
2023-02-19T19:11:10.941Z,1.67
2023-02-19T19:13:12.643Z,1.46
2023-02-19T19:15:17.938Z,1.48
2023-02-19T19:17:19.644Z,1.55
2023-02-19T19:19:21.109Z,1.64
2023-02-19T19:21:23.020Z,1.60
2023-02-19T19:23:24.715Z,1.59
2023-02-19T19:25:26.147Z,1.56
2023-02-19T19:27:27.688Z,1.55
2023-02-19T19:29:29.175Z,1.48
2023-02-19T19:31:35.564Z,1.35
2023-02-19T19:33:37.360Z,1.49
2023-02-19T19:35:38.907Z,1.40
2023-02-19T19:37:40.290Z,1.50
2023-02-19T19:39:43.563Z,1.37
2023-02-19T19:41:45.179Z,1.40
2023-02-19T19:43:46.673Z,1.32
2023-02-19T19:45:48.142Z,1.35
2023-02-19T19:47:49.634Z,1.26
2023-02-19T19:49:51.049Z,1.36
2023-02-19T19:51:52.564Z,1.25
2023-02-19T19:53:54.046Z,1.19
2023-02-19T19:55:55.461Z,1.25
2023-02-19T19:57:56.938Z,1.17
2023-02-19T19:59:58.412Z,1.31
2023-02-19T20:01:59.913Z,1.04
2023-02-19T20:04:01.432Z,1.26
2023-02-19T20:06:02.927Z,1.20
2023-02-19T20:08:04.600Z,1.23
2023-02-19T20:10:07.774Z,1.04
2023-02-19T20:12:09.329Z,1.06
2023-02-19T20:14:10.747Z,1.14
2023-02-19T20:16:12.303Z,1.13
2023-02-19T20:18:13.958Z,0.95
2023-02-19T20:20:17.323Z,0.96
2023-02-19T20:22:19.272Z,0.87
2023-02-19T20:24:28.706Z,0.82
2023-02-19T20:26:30.814Z,0.75
2023-02-19T20:28:32.624Z,0.55
2023-02-19T20:30:34.080Z,0.60
2023-02-19T20:32:35.828Z,0.67
2023-02-19T20:34:37.561Z,0.71
2023-02-19T20:36:43.333Z,0.61
2023-02-19T20:38:49.266Z,0.54
2023-02-19T20:40:50.839Z,0.38
2023-02-19T20:42:52.322Z,0.60
2023-02-19T20:44:53.695Z,0.54
2023-02-19T20:46:56.610Z,0.52
2023-02-19T20:48:58.427Z,0.38
2023-02-19T20:50:59.902Z,0.44
2023-02-19T20:53:01.507Z,0.41
2023-02-19T20:55:03.122Z,0.45
2023-02-19T20:57:05.815Z,0.44
2023-02-19T20:59:07.500Z,0.40
2023-02-19T21:01:09.253Z,0.36
2023-02-19T21:03:10.642Z,0.43
2023-02-19T21:05:12.120Z,0.45
2023-02-19T21:07:13.662Z,0.42
2023-02-19T21:09:15.112Z,0.31
2023-02-19T21:11:16.579Z,0.30
2023-02-19T21:13:18.195Z,0.13
2023-02-19T21:15:20.163Z,0.15
2023-02-19T21:17:21.754Z,0.09
2023-02-19T21:19:23.296Z,0.17
2023-02-19T21:21:25.638Z,0.24
2023-02-19T21:23:27.206Z,0.22
2023-02-19T21:25:28.689Z,0.26
2023-02-19T21:27:30.072Z,0.25
2023-02-19T21:29:31.787Z,0.17
2023-02-19T21:31:38.977Z,0.18
2023-02-19T21:33:40.444Z,0.14
2023-02-19T21:35:42.420Z,0.13
2023-02-19T21:37:44.254Z,0.12
2023-02-19T21:39:45.704Z,0.07
2023-02-19T21:41:47.413Z,0.18
2023-02-19T21:43:49.447Z,0.14
2023-02-19T21:45:50.925Z,0.20
2023-02-19T21:47:52.581Z,0.14
2023-02-19T21:49:54.150Z,-0.03
2023-02-19T21:51:55.609Z,0.03
2023-02-19T21:53:58.012Z,0.10
2023-02-19T21:55:59.742Z,-0.02
2023-02-19T21:58:01.113Z,0.19
2023-02-19T22:00:03.818Z,0.17
2023-02-19T22:02:05.291Z,0.31
2023-02-19T22:04:07.663Z,0.40
2023-02-19T22:06:09.146Z,0.46
2023-02-19T22:08:10.619Z,0.46
2023-02-19T22:10:12.035Z,0.29
2023-02-19T22:12:13.636Z,0.59
2023-02-19T22:14:15.110Z,0.52
2023-02-19T22:16:17.493Z,0.58
2023-02-19T22:18:18.985Z,0.73
2023-02-19T22:20:20.582Z,0.86
2023-02-19T22:22:21.983Z,0.73
2023-02-19T22:24:24.252Z,0.85
2023-02-19T22:26:28.778Z,0.87
2023-02-19T22:28:30.199Z,0.99
2023-02-19T22:30:31.769Z,1.03
2023-02-19T22:32:33.375Z,1.08
2023-02-19T22:34:38.496Z,1.15
2023-02-19T22:36:39.888Z,1.14
2023-02-19T22:38:41.607Z,1.20
2023-02-19T22:40:43.123Z,1.25
2023-02-19T22:42:44.611Z,1.14
2023-02-19T22:44:46.081Z,1.34
2023-02-19T22:46:56.828Z,1.37
2023-02-19T22:49:01.812Z,1.27
2023-02-19T22:51:03.495Z,1.38
2023-02-19T22:53:04.924Z,1.46
2023-02-19T22:55:06.340Z,1.40
2023-02-19T22:57:07.867Z,1.48
2023-02-19T22:59:09.469Z,1.53
2023-02-19T23:01:13.013Z,1.46
2023-02-19T23:03:14.664Z,1.37
2023-02-19T23:05:16.502Z,1.51
2023-02-19T23:07:17.931Z,1.34
2023-02-19T23:09:25.134Z,1.53
2023-02-19T23:11:29.686Z,1.66
2023-02-19T23:13:31.285Z,1.65
2023-02-19T23:15:32.693Z,1.66
2023-02-19T23:17:34.155Z,1.63
2023-02-19T23:19:35.748Z,1.61
2023-02-19T23:21:41.708Z,1.63
2023-02-19T23:23:44.755Z,1.68
2023-02-19T23:25:46.317Z,1.52
2023-02-19T23:27:47.762Z,1.65
2023-02-19T23:29:49.169Z,1.71
2023-02-19T23:31:50.914Z,1.69
2023-02-19T23:33:53.501Z,1.68
2023-02-19T23:35:54.932Z,1.52
2023-02-19T23:37:56.440Z,1.55
2023-02-19T23:39:58.079Z,1.57
2023-02-19T23:41:59.484Z,1.59
2023-02-19T23:44:01.084Z,1.60
2023-02-19T23:46:03.127Z,1.47
2023-02-19T23:48:04.607Z,1.49
2023-02-19T23:50:06.819Z,1.16
2023-02-19T23:52:08.255Z,1.43
2023-02-19T23:54:10.591Z,1.57
2023-02-19T23:56:12.479Z,1.48
2023-02-19T23:58:14.572Z,1.60
